sensor_id;sensor_type;location;lat;lon;timestamp;P1;durP1;ratioP1;P2;durP2;ratioP2
26806;SDS011;14380;49.910;6.792;2023-06-24T00:01:02;1.63;;;1.50;;
26806;SDS011;14380;49.910;6.792;2023-06-24T00:03:30;2.05;;;1.52;;
26806;SDS011;14380;49.910;6.792;2023-06-24T00:06:02;2.33;;;1.20;;
26806;SDS011;14380;49.910;6.792;2023-06-24T00:08:28;1.77;;;1.23;;
26806;SDS011;14380;49.910;6.792;2023-06-24T00:10:59;1.73;;;1.20;;
26806;SDS011;14380;49.910;6.792;2023-06-24T00:13:26;1.33;;;0.93;;
26806;SDS011;14380;49.910;6.792;2023-06-24T00:15:53;2.08;;;1.40;;
26806;SDS011;14380;49.910;6.792;2023-06-24T00:18:20;1.42;;;1.30;;
26806;SDS011;14380;49.910;6.792;2023-06-24T00:20:50;1.65;;;1.13;;
26806;SDS011;14380;49.910;6.792;2023-06-24T00:23:19;1.73;;;1.35;;
26806;SDS011;14380;49.910;6.792;2023-06-24T00:25:49;2.13;;;1.63;;
26806;SDS011;14380;49.910;6.792;2023-06-24T00:28:16;2.15;;;1.58;;
26806;SDS011;14380;49.910;6.792;2023-06-24T00:30:43;1.25;;;1.10;;
26806;SDS011;14380;49.910;6.792;2023-06-24T00:33:09;1.45;;;1.20;;
26806;SDS011;14380;49.910;6.792;2023-06-24T00:35:38;2.03;;;1.27;;
26806;SDS011;14380;49.910;6.792;2023-06-24T00:38:06;1.73;;;1.63;;
26806;SDS011;14380;49.910;6.792;2023-06-24T00:40:33;1.67;;;1.58;;
26806;SDS011;14380;49.910;6.792;2023-06-24T00:43:00;2.00;;;1.42;;
26806;SDS011;14380;49.910;6.792;2023-06-24T00:45:27;1.98;;;1.33;;
26806;SDS011;14380;49.910;6.792;2023-06-24T00:47:56;1.52;;;1.20;;
26806;SDS011;14380;49.910;6.792;2023-06-24T00:50:24;1.85;;;1.17;;
26806;SDS011;14380;49.910;6.792;2023-06-24T00:52:50;1.73;;;1.33;;
26806;SDS011;14380;49.910;6.792;2023-06-24T00:55:19;2.33;;;1.38;;
26806;SDS011;14380;49.910;6.792;2023-06-24T00:57:46;1.95;;;1.58;;
26806;SDS011;14380;49.910;6.792;2023-06-24T01:00:16;2.78;;;1.95;;
26806;SDS011;14380;49.910;6.792;2023-06-24T01:02:44;1.67;;;1.52;;
26806;SDS011;14380;49.910;6.792;2023-06-24T01:05:12;1.67;;;1.35;;
26806;SDS011;14380;49.910;6.792;2023-06-24T01:07:39;1.55;;;1.35;;
26806;SDS011;14380;49.910;6.792;2023-06-24T01:10:07;1.73;;;1.40;;
26806;SDS011;14380;49.910;6.792;2023-06-24T01:12:36;1.30;;;1.17;;
26806;SDS011;14380;49.910;6.792;2023-06-24T01:15:04;2.38;;;1.80;;
26806;SDS011;14380;49.910;6.792;2023-06-24T01:17:33;2.25;;;1.60;;
26806;SDS011;14380;49.910;6.792;2023-06-24T01:20:07;1.35;;;1.17;;
26806;SDS011;14380;49.910;6.792;2023-06-24T01:22:48;1.25;;;1.15;;
26806;SDS011;14380;49.910;6.792;2023-06-24T01:25:40;1.45;;;1.35;;
26806;SDS011;14380;49.910;6.792;2023-06-24T01:28:22;2.45;;;1.77;;
26806;SDS011;14380;49.910;6.792;2023-06-24T01:33:50;1.50;;;1.40;;
26806;SDS011;14380;49.910;6.792;2023-06-24T01:36:25;1.92;;;1.27;;
26806;SDS011;14380;49.910;6.792;2023-06-24T01:38:58;1.63;;;1.30;;
26806;SDS011;14380;49.910;6.792;2023-06-24T01:41:30;1.88;;;1.58;;
26806;SDS011;14380;49.910;6.792;2023-06-24T01:44:00;1.27;;;1.10;;
26806;SDS011;14380;49.910;6.792;2023-06-24T01:46:29;1.90;;;1.40;;
26806;SDS011;14380;49.910;6.792;2023-06-24T01:48:58;1.65;;;1.10;;
26806;SDS011;14380;49.910;6.792;2023-06-24T01:51:28;2.38;;;1.80;;
26806;SDS011;14380;49.910;6.792;2023-06-24T01:53:59;1.70;;;1.40;;
26806;SDS011;14380;49.910;6.792;2023-06-24T01:56:29;2.08;;;1.63;;
26806;SDS011;14380;49.910;6.792;2023-06-24T01:58:58;2.20;;;1.67;;
26806;SDS011;14380;49.910;6.792;2023-06-24T02:01:30;2.53;;;1.40;;
26806;SDS011;14380;49.910;6.792;2023-06-24T02:03:58;3.17;;;2.00;;
26806;SDS011;14380;49.910;6.792;2023-06-24T02:06:28;2.33;;;1.65;;
26806;SDS011;14380;49.910;6.792;2023-06-24T02:08:56;2.30;;;1.33;;
26806;SDS011;14380;49.910;6.792;2023-06-24T02:11:24;1.52;;;1.20;;
26806;SDS011;14380;49.910;6.792;2023-06-24T02:13:54;3.13;;;1.75;;
26806;SDS011;14380;49.910;6.792;2023-06-24T02:16:21;2.25;;;1.55;;
26806;SDS011;14380;49.910;6.792;2023-06-24T02:18:50;2.35;;;1.70;;
26806;SDS011;14380;49.910;6.792;2023-06-24T02:21:18;3.30;;;1.88;;
26806;SDS011;14380;49.910;6.792;2023-06-24T02:23:45;5.90;;;1.50;;
26806;SDS011;14380;49.910;6.792;2023-06-24T02:26:13;3.05;;;1.63;;
26806;SDS011;14380;49.910;6.792;2023-06-24T02:28:41;1.77;;;1.50;;
26806;SDS011;14380;49.910;6.792;2023-06-24T02:31:10;2.05;;;1.83;;
26806;SDS011;14380;49.910;6.792;2023-06-24T02:33:38;2.15;;;1.55;;
26806;SDS011;14380;49.910;6.792;2023-06-24T02:36:06;2.55;;;1.77;;
26806;SDS011;14380;49.910;6.792;2023-06-24T02:38:33;3.45;;;1.80;;
26806;SDS011;14380;49.910;6.792;2023-06-24T02:41:00;1.60;;;1.50;;
26806;SDS011;14380;49.910;6.792;2023-06-24T02:43:29;1.35;;;1.02;;
26806;SDS011;14380;49.910;6.792;2023-06-24T02:45:56;1.83;;;1.33;;
26806;SDS011;14380;49.910;6.792;2023-06-24T02:48:24;1.80;;;1.67;;
26806;SDS011;14380;49.910;6.792;2023-06-24T02:50:51;1.70;;;1.60;;
26806;SDS011;14380;49.910;6.792;2023-06-24T02:53:19;2.38;;;1.77;;
26806;SDS011;14380;49.910;6.792;2023-06-24T02:55:48;2.22;;;1.60;;
26806;SDS011;14380;49.910;6.792;2023-06-24T02:58:16;2.22;;;1.55;;
26806;SDS011;14380;49.910;6.792;2023-06-24T03:00:43;2.10;;;1.55;;
26806;SDS011;14380;49.910;6.792;2023-06-24T03:03:09;1.30;;;1.20;;
26806;SDS011;14380;49.910;6.792;2023-06-24T03:05:37;3.20;;;1.45;;
26806;SDS011;14380;49.910;6.792;2023-06-24T03:08:04;3.20;;;1.70;;
26806;SDS011;14380;49.910;6.792;2023-06-24T03:10:33;3.35;;;1.55;;
26806;SDS011;14380;49.910;6.792;2023-06-24T03:13:03;3.55;;;1.70;;
26806;SDS011;14380;49.910;6.792;2023-06-24T03:15:29;2.03;;;1.65;;
26806;SDS011;14380;49.910;6.792;2023-06-24T03:17:56;1.60;;;1.50;;
26806;SDS011;14380;49.910;6.792;2023-06-24T03:20:23;1.75;;;1.60;;
26806;SDS011;14380;49.910;6.792;2023-06-24T03:22:53;2.67;;;1.83;;
26806;SDS011;14380;49.910;6.792;2023-06-24T03:25:21;2.05;;;1.58;;
26806;SDS011;14380;49.910;6.792;2023-06-24T03:27:49;2.45;;;1.73;;
26806;SDS011;14380;49.910;6.792;2023-06-24T03:30:15;1.77;;;1.60;;
26806;SDS011;14380;49.910;6.792;2023-06-24T03:32:42;2.20;;;1.50;;
26806;SDS011;14380;49.910;6.792;2023-06-24T03:35:11;1.50;;;1.40;;
26806;SDS011;14380;49.910;6.792;2023-06-24T03:37:38;2.17;;;1.67;;
26806;SDS011;14380;49.910;6.792;2023-06-24T03:40:05;2.28;;;1.80;;
26806;SDS011;14380;49.910;6.792;2023-06-24T03:42:33;2.63;;;1.70;;
26806;SDS011;14380;49.910;6.792;2023-06-24T03:45:01;3.15;;;1.73;;
26806;SDS011;14380;49.910;6.792;2023-06-24T03:47:28;3.22;;;1.92;;
26806;SDS011;14380;49.910;6.792;2023-06-24T03:49:55;3.35;;;1.88;;
26806;SDS011;14380;49.910;6.792;2023-06-24T03:52:21;2.45;;;1.63;;
26806;SDS011;14380;49.910;6.792;2023-06-24T03:54:48;2.00;;;1.40;;
26806;SDS011;14380;49.910;6.792;2023-06-24T03:57:14;2.10;;;1.85;;
26806;SDS011;14380;49.910;6.792;2023-06-24T03:59:41;2.05;;;1.63;;
26806;SDS011;14380;49.910;6.792;2023-06-24T04:02:09;2.92;;;2.00;;
26806;SDS011;14380;49.910;6.792;2023-06-24T04:04:35;2.50;;;1.80;;
26806;SDS011;14380;49.910;6.792;2023-06-24T04:07:02;3.42;;;2.13;;
26806;SDS011;14380;49.910;6.792;2023-06-24T04:09:31;2.28;;;1.90;;
26806;SDS011;14380;49.910;6.792;2023-06-24T04:11:59;2.45;;;1.67;;
26806;SDS011;14380;49.910;6.792;2023-06-24T04:14:25;1.25;;;1.02;;
26806;SDS011;14380;49.910;6.792;2023-06-24T04:16:52;1.95;;;1.33;;
26806;SDS011;14380;49.910;6.792;2023-06-24T04:19:20;3.08;;;1.92;;
26806;SDS011;14380;49.910;6.792;2023-06-24T04:21:47;1.55;;;1.45;;
26806;SDS011;14380;49.910;6.792;2023-06-24T04:24:14;2.03;;;1.60;;
26806;SDS011;14380;49.910;6.792;2023-06-24T04:26:40;3.22;;;1.67;;
26806;SDS011;14380;49.910;6.792;2023-06-24T04:29:07;1.88;;;1.55;;
26806;SDS011;14380;49.910;6.792;2023-06-24T04:31:33;1.60;;;1.42;;
26806;SDS011;14380;49.910;6.792;2023-06-24T04:34:00;2.03;;;1.50;;
26806;SDS011;14380;49.910;6.792;2023-06-24T04:36:28;5.15;;;2.10;;
26806;SDS011;14380;49.910;6.792;2023-06-24T04:38:54;2.28;;;1.63;;
26806;SDS011;14380;49.910;6.792;2023-06-24T04:41:21;3.45;;;2.00;;
26806;SDS011;14380;49.910;6.792;2023-06-24T04:43:48;2.20;;;1.80;;
26806;SDS011;14380;49.910;6.792;2023-06-24T04:46:15;1.67;;;1.50;;
26806;SDS011;14380;49.910;6.792;2023-06-24T04:48:42;1.98;;;1.50;;
26806;SDS011;14380;49.910;6.792;2023-06-24T04:51:09;2.38;;;1.30;;
26806;SDS011;14380;49.910;6.792;2023-06-24T04:53:36;2.22;;;1.70;;
26806;SDS011;14380;49.910;6.792;2023-06-24T04:56:03;2.33;;;1.75;;
26806;SDS011;14380;49.910;6.792;2023-06-24T04:58:30;2.40;;;1.38;;
26806;SDS011;14380;49.910;6.792;2023-06-24T05:00:56;1.92;;;1.60;;
26806;SDS011;14380;49.910;6.792;2023-06-24T05:03:24;1.75;;;1.38;;
26806;SDS011;14380;49.910;6.792;2023-06-24T05:05:50;2.08;;;1.83;;
26806;SDS011;14380;49.910;6.792;2023-06-24T05:08:17;2.33;;;1.75;;
26806;SDS011;14380;49.910;6.792;2023-06-24T05:10:45;1.80;;;1.50;;
26806;SDS011;14380;49.910;6.792;2023-06-24T05:13:11;1.42;;;1.33;;
26806;SDS011;14380;49.910;6.792;2023-06-24T05:15:38;1.88;;;1.60;;
26806;SDS011;14380;49.910;6.792;2023-06-24T05:18:04;1.88;;;1.52;;
26806;SDS011;14380;49.910;6.792;2023-06-24T05:20:31;1.92;;;1.40;;
26806;SDS011;14380;49.910;6.792;2023-06-24T05:22:58;2.03;;;1.30;;
26806;SDS011;14380;49.910;6.792;2023-06-24T05:25:24;2.58;;;1.48;;
26806;SDS011;14380;49.910;6.792;2023-06-24T05:27:52;1.80;;;1.38;;
26806;SDS011;14380;49.910;6.792;2023-06-24T05:30:19;1.90;;;1.45;;
26806;SDS011;14380;49.910;6.792;2023-06-24T05:32:45;2.20;;;1.90;;
26806;SDS011;14380;49.910;6.792;2023-06-24T05:35:12;1.48;;;1.33;;
26806;SDS011;14380;49.910;6.792;2023-06-24T05:37:39;2.22;;;1.50;;
26806;SDS011;14380;49.910;6.792;2023-06-24T05:40:06;1.75;;;1.60;;
26806;SDS011;14380;49.910;6.792;2023-06-24T05:42:34;1.52;;;1.30;;
26806;SDS011;14380;49.910;6.792;2023-06-24T05:45:02;2.40;;;1.88;;
26806;SDS011;14380;49.910;6.792;2023-06-24T05:47:29;2.28;;;1.95;;
26806;SDS011;14380;49.910;6.792;2023-06-24T05:49:56;2.35;;;1.73;;
26806;SDS011;14380;49.910;6.792;2023-06-24T05:52:23;2.33;;;1.92;;
26806;SDS011;14380;49.910;6.792;2023-06-24T05:54:50;2.75;;;1.92;;
26806;SDS011;14380;49.910;6.792;2023-06-24T05:57:17;2.53;;;1.63;;
26806;SDS011;14380;49.910;6.792;2023-06-24T05:59:43;3.22;;;2.00;;
26806;SDS011;14380;49.910;6.792;2023-06-24T06:02:11;1.65;;;1.42;;
26806;SDS011;14380;49.910;6.792;2023-06-24T06:04:38;3.03;;;2.47;;
26806;SDS011;14380;49.910;6.792;2023-06-24T06:07:05;2.45;;;1.95;;
26806;SDS011;14380;49.910;6.792;2023-06-24T06:09:31;2.10;;;1.83;;
26806;SDS011;14380;49.910;6.792;2023-06-24T06:11:58;1.98;;;1.75;;
26806;SDS011;14380;49.910;6.792;2023-06-24T06:14:26;2.40;;;1.60;;
26806;SDS011;14380;49.910;6.792;2023-06-24T06:16:53;1.98;;;1.50;;
26806;SDS011;14380;49.910;6.792;2023-06-24T06:19:21;3.13;;;1.83;;
26806;SDS011;14380;49.910;6.792;2023-06-24T06:21:48;1.77;;;1.45;;
26806;SDS011;14380;49.910;6.792;2023-06-24T06:24:15;2.78;;;1.80;;
26806;SDS011;14380;49.910;6.792;2023-06-24T06:26:42;2.00;;;1.70;;
26806;SDS011;14380;49.910;6.792;2023-06-24T06:29:09;2.13;;;1.80;;
26806;SDS011;14380;49.910;6.792;2023-06-24T06:31:36;1.65;;;1.50;;
26806;SDS011;14380;49.910;6.792;2023-06-24T06:34:03;2.15;;;1.42;;
26806;SDS011;14380;49.910;6.792;2023-06-24T06:36:31;1.80;;;1.48;;
26806;SDS011;14380;49.910;6.792;2023-06-24T06:38:57;7.03;;;2.50;;
26806;SDS011;14380;49.910;6.792;2023-06-24T06:41:24;1.77;;;1.55;;
26806;SDS011;14380;49.910;6.792;2023-06-24T06:43:50;2.40;;;1.50;;
26806;SDS011;14380;49.910;6.792;2023-06-24T06:46:17;1.65;;;1.42;;
26806;SDS011;14380;49.910;6.792;2023-06-24T06:48:44;2.28;;;1.70;;
26806;SDS011;14380;49.910;6.792;2023-06-24T06:51:11;2.63;;;1.80;;
26806;SDS011;14380;49.910;6.792;2023-06-24T06:53:40;3.05;;;1.95;;
26806;SDS011;14380;49.910;6.792;2023-06-24T06:56:06;2.28;;;1.48;;
26806;SDS011;14380;49.910;6.792;2023-06-24T06:58:33;3.05;;;1.58;;
26806;SDS011;14380;49.910;6.792;2023-06-24T07:00:59;1.33;;;1.23;;
26806;SDS011;14380;49.910;6.792;2023-06-24T07:03:26;4.63;;;2.17;;
26806;SDS011;14380;49.910;6.792;2023-06-24T07:05:54;3.35;;;1.90;;
26806;SDS011;14380;49.910;6.792;2023-06-24T07:08:20;2.05;;;1.75;;
26806;SDS011;14380;49.910;6.792;2023-06-24T07:10:52;2.15;;;1.90;;
26806;SDS011;14380;49.910;6.792;2023-06-24T07:13:27;2.60;;;2.00;;
26806;SDS011;14380;49.910;6.792;2023-06-24T07:15:53;2.53;;;2.00;;
26806;SDS011;14380;49.910;6.792;2023-06-24T07:18:20;2.38;;;1.85;;
26806;SDS011;14380;49.910;6.792;2023-06-24T07:20:46;3.97;;;1.65;;
26806;SDS011;14380;49.910;6.792;2023-06-24T07:23:13;2.00;;;1.80;;
26806;SDS011;14380;49.910;6.792;2023-06-24T07:25:40;3.50;;;2.45;;
26806;SDS011;14380;49.910;6.792;2023-06-24T07:28:08;2.42;;;2.13;;
26806;SDS011;14380;49.910;6.792;2023-06-24T07:30:35;1.95;;;1.65;;
26806;SDS011;14380;49.910;6.792;2023-06-24T07:33:02;2.45;;;2.00;;
26806;SDS011;14380;49.910;6.792;2023-06-24T07:35:30;2.47;;;1.65;;
26806;SDS011;14380;49.910;6.792;2023-06-24T07:37:57;2.85;;;2.20;;
26806;SDS011;14380;49.910;6.792;2023-06-24T07:40:24;1.90;;;1.60;;
26806;SDS011;14380;49.910;6.792;2023-06-24T07:42:50;1.73;;;1.58;;
26806;SDS011;14380;49.910;6.792;2023-06-24T07:45:18;1.75;;;1.45;;
26806;SDS011;14380;49.910;6.792;2023-06-24T07:47:45;2.65;;;1.85;;
26806;SDS011;14380;49.910;6.792;2023-06-24T07:50:11;4.18;;;2.03;;
26806;SDS011;14380;49.910;6.792;2023-06-24T07:52:38;2.08;;;1.77;;
26806;SDS011;14380;49.910;6.792;2023-06-24T07:55:05;2.15;;;1.73;;
26806;SDS011;14380;49.910;6.792;2023-06-24T07:57:32;1.58;;;1.48;;
26806;SDS011;14380;49.910;6.792;2023-06-24T07:59:58;2.78;;;1.65;;
26806;SDS011;14380;49.910;6.792;2023-06-24T08:02:28;2.47;;;1.70;;
26806;SDS011;14380;49.910;6.792;2023-06-24T08:04:55;3.00;;;1.85;;
26806;SDS011;14380;49.910;6.792;2023-06-24T08:07:24;2.70;;;1.77;;
26806;SDS011;14380;49.910;6.792;2023-06-24T08:09:50;2.72;;;2.17;;
26806;SDS011;14380;49.910;6.792;2023-06-24T08:12:17;1.95;;;1.70;;
26806;SDS011;14380;49.910;6.792;2023-06-24T08:14:43;1.80;;;1.70;;
26806;SDS011;14380;49.910;6.792;2023-06-24T08:17:10;2.47;;;1.90;;
26806;SDS011;14380;49.910;6.792;2023-06-24T08:19:38;3.50;;;2.15;;
26806;SDS011;14380;49.910;6.792;2023-06-24T08:22:05;2.22;;;1.55;;
26806;SDS011;14380;49.910;6.792;2023-06-24T08:24:31;1.85;;;1.55;;
26806;SDS011;14380;49.910;6.792;2023-06-24T08:26:58;2.80;;;1.88;;
26806;SDS011;14380;49.910;6.792;2023-06-24T08:29:24;3.15;;;2.30;;
26806;SDS011;14380;49.910;6.792;2023-06-24T08:31:51;2.88;;;1.90;;
26806;SDS011;14380;49.910;6.792;2023-06-24T08:34:17;2.55;;;1.92;;
26806;SDS011;14380;49.910;6.792;2023-06-24T08:36:46;2.63;;;1.90;;
26806;SDS011;14380;49.910;6.792;2023-06-24T08:39:12;2.38;;;1.98;;
26806;SDS011;14380;49.910;6.792;2023-06-24T08:41:39;1.85;;;1.65;;
26806;SDS011;14380;49.910;6.792;2023-06-24T08:44:05;2.28;;;1.70;;
26806;SDS011;14380;49.910;6.792;2023-06-24T08:46:32;2.53;;;1.98;;
26806;SDS011;14380;49.910;6.792;2023-06-24T08:49:02;1.95;;;1.40;;
26806;SDS011;14380;49.910;6.792;2023-06-24T08:51:35;1.73;;;1.30;;
26806;SDS011;14380;49.910;6.792;2023-06-24T08:54:09;1.65;;;1.42;;
26806;SDS011;14380;49.910;6.792;2023-06-24T08:56:36;3.88;;;1.60;;
26806;SDS011;14380;49.910;6.792;2023-06-24T08:59:04;1.33;;;1.20;;
26806;SDS011;14380;49.910;6.792;2023-06-24T09:01:31;2.35;;;1.85;;
26806;SDS011;14380;49.910;6.792;2023-06-24T09:03:58;2.35;;;1.40;;
26806;SDS011;14380;49.910;6.792;2023-06-24T09:06:25;1.55;;;1.15;;
26806;SDS011;14380;49.910;6.792;2023-06-24T09:08:52;1.73;;;1.38;;
26806;SDS011;14380;49.910;6.792;2023-06-24T09:11:23;2.42;;;1.52;;
26806;SDS011;14380;49.910;6.792;2023-06-24T09:13:54;2.13;;;1.35;;
26806;SDS011;14380;49.910;6.792;2023-06-24T09:16:21;1.60;;;1.20;;
26806;SDS011;14380;49.910;6.792;2023-06-24T09:18:48;1.45;;;1.20;;
26806;SDS011;14380;49.910;6.792;2023-06-24T09:21:21;13.05;;;1.35;;
26806;SDS011;14380;49.910;6.792;2023-06-24T09:23:50;1.10;;;1.00;;
26806;SDS011;14380;49.910;6.792;2023-06-24T09:26:18;1.40;;;1.30;;
26806;SDS011;14380;49.910;6.792;2023-06-24T09:28:48;1.58;;;1.00;;
26806;SDS011;14380;49.910;6.792;2023-06-24T09:31:15;1.40;;;1.10;;
26806;SDS011;14380;49.910;6.792;2023-06-24T09:33:42;1.02;;;0.80;;
26806;SDS011;14380;49.910;6.792;2023-06-24T09:36:11;1.52;;;0.90;;
26806;SDS011;14380;49.910;6.792;2023-06-24T09:38:39;1.30;;;0.90;;
26806;SDS011;14380;49.910;6.792;2023-06-24T09:41:08;1.35;;;1.10;;
26806;SDS011;14380;49.910;6.792;2023-06-24T09:43:35;3.08;;;1.08;;
26806;SDS011;14380;49.910;6.792;2023-06-24T09:46:03;1.80;;;1.00;;
26806;SDS011;14380;49.910;6.792;2023-06-24T09:48:30;1.38;;;1.27;;
26806;SDS011;14380;49.910;6.792;2023-06-24T09:50:58;1.05;;;0.95;;
26806;SDS011;14380;49.910;6.792;2023-06-24T09:53:27;1.90;;;1.30;;
26806;SDS011;14380;49.910;6.792;2023-06-24T09:55:56;1.25;;;0.70;;
26806;SDS011;14380;49.910;6.792;2023-06-24T09:58:23;1.05;;;0.90;;
26806;SDS011;14380;49.910;6.792;2023-06-24T10:00:51;1.70;;;1.27;;
26806;SDS011;14380;49.910;6.792;2023-06-24T10:03:20;1.48;;;1.13;;
26806;SDS011;14380;49.910;6.792;2023-06-24T10:05:47;2.08;;;0.93;;
26806;SDS011;14380;49.910;6.792;2023-06-24T10:08:14;1.10;;;0.90;;
26806;SDS011;14380;49.910;6.792;2023-06-24T10:10:41;2.22;;;1.05;;
26806;SDS011;14380;49.910;6.792;2023-06-24T10:13:08;1.63;;;1.10;;
26806;SDS011;14380;49.910;6.792;2023-06-24T10:15:35;2.55;;;1.65;;
26806;SDS011;14380;49.910;6.792;2023-06-24T10:18:02;2.33;;;1.33;;
26806;SDS011;14380;49.910;6.792;2023-06-24T10:20:30;1.15;;;0.85;;
26806;SDS011;14380;49.910;6.792;2023-06-24T10:23:05;1.77;;;0.90;;
26806;SDS011;14380;49.910;6.792;2023-06-24T10:25:35;1.13;;;1.02;;
26806;SDS011;14380;49.910;6.792;2023-06-24T10:28:02;1.90;;;0.95;;
26806;SDS011;14380;49.910;6.792;2023-06-24T10:30:30;1.70;;;0.93;;
26806;SDS011;14380;49.910;6.792;2023-06-24T10:32:58;1.38;;;0.98;;
26806;SDS011;14380;49.910;6.792;2023-06-24T10:35:25;1.00;;;0.90;;
26806;SDS011;14380;49.910;6.792;2023-06-24T10:37:56;1.67;;;1.15;;
26806;SDS011;14380;49.910;6.792;2023-06-24T10:43:27;1.92;;;0.80;;
26806;SDS011;14380;49.910;6.792;2023-06-24T10:45:55;1.40;;;0.90;;
26806;SDS011;14380;49.910;6.792;2023-06-24T10:48:23;2.50;;;1.08;;
26806;SDS011;14380;49.910;6.792;2023-06-24T10:50:50;2.15;;;1.20;;
26806;SDS011;14380;49.910;6.792;2023-06-24T10:53:18;1.65;;;1.00;;
26806;SDS011;14380;49.910;6.792;2023-06-24T10:55:45;1.17;;;0.70;;
26806;SDS011;14380;49.910;6.792;2023-06-24T10:58:13;1.50;;;1.08;;
26806;SDS011;14380;49.910;6.792;2023-06-24T11:00:40;1.27;;;0.98;;
26806;SDS011;14380;49.910;6.792;2023-06-24T11:03:09;1.27;;;0.80;;
26806;SDS011;14380;49.910;6.792;2023-06-24T11:05:39;1.23;;;0.98;;
26806;SDS011;14380;49.910;6.792;2023-06-24T11:08:07;0.80;;;0.63;;
26806;SDS011;14380;49.910;6.792;2023-06-24T11:10:35;1.95;;;0.75;;
26806;SDS011;14380;49.910;6.792;2023-06-24T11:13:09;0.85;;;0.75;;
26806;SDS011;14380;49.910;6.792;2023-06-24T11:15:36;1.10;;;1.00;;
26806;SDS011;14380;49.910;6.792;2023-06-24T11:18:04;0.95;;;0.73;;
26806;SDS011;14380;49.910;6.792;2023-06-24T11:20:30;1.35;;;1.00;;
26806;SDS011;14380;49.910;6.792;2023-06-24T11:22:57;1.33;;;1.08;;
26806;SDS011;14380;49.910;6.792;2023-06-24T11:25:23;0.90;;;0.65;;
26806;SDS011;14380;49.910;6.792;2023-06-24T11:27:52;1.48;;;1.08;;
26806;SDS011;14380;49.910;6.792;2023-06-24T11:30:19;1.02;;;0.90;;
26806;SDS011;14380;49.910;6.792;2023-06-24T11:32:46;1.08;;;0.80;;
26806;SDS011;14380;49.910;6.792;2023-06-24T11:35:15;0.82;;;0.77;;
26806;SDS011;14380;49.910;6.792;2023-06-24T11:37:42;0.98;;;0.80;;
26806;SDS011;14380;49.910;6.792;2023-06-24T11:40:10;0.82;;;0.73;;
26806;SDS011;14380;49.910;6.792;2023-06-24T11:42:38;2.25;;;1.15;;
26806;SDS011;14380;49.910;6.792;2023-06-24T11:45:08;2.00;;;1.25;;
26806;SDS011;14380;49.910;6.792;2023-06-24T11:47:37;1.75;;;0.85;;
26806;SDS011;14380;49.910;6.792;2023-06-24T11:50:05;1.67;;;0.88;;
26806;SDS011;14380;49.910;6.792;2023-06-24T11:52:38;1.38;;;0.95;;
26806;SDS011;14380;49.910;6.792;2023-06-24T11:55:11;1.30;;;1.20;;
26806;SDS011;14380;49.910;6.792;2023-06-24T11:57:51;1.00;;;0.90;;
26806;SDS011;14380;49.910;6.792;2023-06-24T12:00:21;1.33;;;1.08;;
26806;SDS011;14380;49.910;6.792;2023-06-24T12:02:49;0.73;;;0.70;;
26806;SDS011;14380;49.910;6.792;2023-06-24T12:05:20;1.13;;;0.90;;
26806;SDS011;14380;49.910;6.792;2023-06-24T12:07:51;1.58;;;0.80;;
26806;SDS011;14380;49.910;6.792;2023-06-24T12:10:20;1.13;;;0.93;;
26806;SDS011;14380;49.910;6.792;2023-06-24T12:12:46;1.52;;;0.90;;
26806;SDS011;14380;49.910;6.792;2023-06-24T12:15:13;1.60;;;1.20;;
26806;SDS011;14380;49.910;6.792;2023-06-24T12:17:41;0.98;;;0.85;;
26806;SDS011;14380;49.910;6.792;2023-06-24T12:20:08;2.30;;;1.02;;
26806;SDS011;14380;49.910;6.792;2023-06-24T12:22:35;1.52;;;1.08;;
26806;SDS011;14380;49.910;6.792;2023-06-24T12:25:02;0.98;;;0.90;;
26806;SDS011;14380;49.910;6.792;2023-06-24T12:27:29;1.02;;;0.93;;
26806;SDS011;14380;49.910;6.792;2023-06-24T12:29:56;1.48;;;0.98;;
26806;SDS011;14380;49.910;6.792;2023-06-24T12:32:22;1.27;;;0.80;;
26806;SDS011;14380;49.910;6.792;2023-06-24T12:34:50;1.27;;;0.82;;
26806;SDS011;14380;49.910;6.792;2023-06-24T12:37:18;3.13;;;1.23;;
26806;SDS011;14380;49.910;6.792;2023-06-24T12:39:44;1.20;;;0.90;;
26806;SDS011;14380;49.910;6.792;2023-06-24T12:42:12;1.75;;;0.90;;
26806;SDS011;14380;49.910;6.792;2023-06-24T12:44:38;1.20;;;1.10;;
26806;SDS011;14380;49.910;6.792;2023-06-24T12:47:05;1.25;;;0.80;;
26806;SDS011;14380;49.910;6.792;2023-06-24T12:49:32;1.15;;;0.93;;
26806;SDS011;14380;49.910;6.792;2023-06-24T12:52:01;2.45;;;0.77;;
26806;SDS011;14380;49.910;6.792;2023-06-24T12:54:27;1.15;;;0.80;;
26806;SDS011;14380;49.910;6.792;2023-06-24T12:56:54;2.00;;;1.08;;
26806;SDS011;14380;49.910;6.792;2023-06-24T12:59:22;1.52;;;1.08;;
26806;SDS011;14380;49.910;6.792;2023-06-24T13:01:50;1.40;;;1.10;;
26806;SDS011;14380;49.910;6.792;2023-06-24T13:04:21;1.27;;;0.93;;
26806;SDS011;14380;49.910;6.792;2023-06-24T13:06:53;1.63;;;1.00;;
26806;SDS011;14380;49.910;6.792;2023-06-24T13:09:22;1.02;;;0.70;;
26806;SDS011;14380;49.910;6.792;2023-06-24T13:11:53;1.05;;;0.80;;
26806;SDS011;14380;49.910;6.792;2023-06-24T13:14:20;1.10;;;0.95;;
26806;SDS011;14380;49.910;6.792;2023-06-24T13:16:50;1.63;;;0.93;;
26806;SDS011;14380;49.910;6.792;2023-06-24T13:19:17;1.63;;;0.98;;
26806;SDS011;14380;49.910;6.792;2023-06-24T13:21:44;1.17;;;0.98;;
26806;SDS011;14380;49.910;6.792;2023-06-24T13:24:11;0.93;;;0.60;;
26806;SDS011;14380;49.910;6.792;2023-06-24T13:26:39;1.50;;;1.10;;
26806;SDS011;14380;49.910;6.792;2023-06-24T13:29:06;1.58;;;1.08;;
26806;SDS011;14380;49.910;6.792;2023-06-24T13:31:33;1.95;;;0.90;;
26806;SDS011;14380;49.910;6.792;2023-06-24T13:34:00;1.27;;;0.88;;
26806;SDS011;14380;49.910;6.792;2023-06-24T13:36:30;2.40;;;1.00;;
26806;SDS011;14380;49.910;6.792;2023-06-24T13:39:00;1.55;;;1.00;;
26806;SDS011;14380;49.910;6.792;2023-06-24T13:41:27;1.00;;;0.90;;
26806;SDS011;14380;49.910;6.792;2023-06-24T13:43:56;2.33;;;1.00;;
26806;SDS011;14380;49.910;6.792;2023-06-24T13:46:23;1.10;;;1.00;;
26806;SDS011;14380;49.910;6.792;2023-06-24T13:48:50;0.95;;;0.80;;
26806;SDS011;14380;49.910;6.792;2023-06-24T13:51:18;0.88;;;0.68;;
26806;SDS011;14380;49.910;6.792;2023-06-24T13:53:45;1.55;;;1.00;;
26806;SDS011;14380;49.910;6.792;2023-06-24T13:56:13;0.95;;;0.80;;
26806;SDS011;14380;49.910;6.792;2023-06-24T13:58:40;0.88;;;0.80;;
26806;SDS011;14380;49.910;6.792;2023-06-24T14:01:08;1.90;;;0.95;;
26806;SDS011;14380;49.910;6.792;2023-06-24T14:03:35;2.67;;;1.17;;
26806;SDS011;14380;49.910;6.792;2023-06-24T14:06:01;1.48;;;0.85;;
26806;SDS011;14380;49.910;6.792;2023-06-24T14:08:28;2.17;;;1.10;;
26806;SDS011;14380;49.910;6.792;2023-06-24T14:10:57;0.63;;;0.63;;
26806;SDS011;14380;49.910;6.792;2023-06-24T14:13:24;0.80;;;0.80;;
26806;SDS011;14380;49.910;6.792;2023-06-24T14:15:52;0.88;;;0.65;;
26806;SDS011;14380;49.910;6.792;2023-06-24T14:18:20;1.55;;;1.05;;
26806;SDS011;14380;49.910;6.792;2023-06-24T14:20:47;1.38;;;0.98;;
26806;SDS011;14380;49.910;6.792;2023-06-24T14:23:14;1.48;;;1.13;;
26806;SDS011;14380;49.910;6.792;2023-06-24T14:25:40;1.15;;;0.90;;
26806;SDS011;14380;49.910;6.792;2023-06-24T14:28:07;3.80;;;1.23;;
26806;SDS011;14380;49.910;6.792;2023-06-24T14:30:33;1.55;;;0.90;;
26806;SDS011;14380;49.910;6.792;2023-06-24T14:33:00;1.25;;;0.90;;
26806;SDS011;14380;49.910;6.792;2023-06-24T14:35:28;2.42;;;1.00;;
26806;SDS011;14380;49.910;6.792;2023-06-24T14:37:55;1.10;;;0.98;;
26806;SDS011;14380;49.910;6.792;2023-06-24T14:40:22;1.95;;;1.17;;
26806;SDS011;14380;49.910;6.792;2023-06-24T14:42:48;1.23;;;1.00;;
26806;SDS011;14380;49.910;6.792;2023-06-24T14:45:14;1.42;;;0.85;;
26806;SDS011;14380;49.910;6.792;2023-06-24T14:47:41;1.48;;;0.85;;
26806;SDS011;14380;49.910;6.792;2023-06-24T14:50:08;0.75;;;0.75;;
26806;SDS011;14380;49.910;6.792;2023-06-24T14:52:36;1.73;;;1.10;;
26806;SDS011;14380;49.910;6.792;2023-06-24T14:55:02;1.52;;;0.70;;
26806;SDS011;14380;49.910;6.792;2023-06-24T14:57:29;3.50;;;1.10;;